Terminal Aerodrome Forecast
Issued by NWS St Louis, MO

Home | Current Version | Previous Version | Text Only | Print | Product List | Glossary On
Versions: 1 2 3 4 5 6 7 8 9 10 11 12 13 14 15 16 17
223
FTUS43 KLSX 110536
TAFCOU
TAF
KCOU 110536Z 1106/1206 23005KT P6SM FEW250
     FM111500 22012KT P6SM FEW140
     FM111700 27015G25KT P6SM FEW150
     FM112300 30017G27KT P6SM BKN070
     FM120200 32014G24KT P6SM BKN025=

USA.gov is the U.S. government's official web portal to all federal, state and local government web resources and services.